Time;durP1;ratioP1;P1;durP2;ratioP2;P2;SDS_P1;SDS_P2;PMS_P1;PMS_P2;Temp;Humidity;BMP_temperature;BMP_pressure;BME280_temperature;BME280_humidity;BME280_pressure;Samples;Min_cycle;Max_cycle;Signal;HPM_P1;HPM_P2
2022/05/25 00:02:18;;;;;;;9.55;8.27;;;10.10;99.90;;;;;;4939041;28;94141;-35
2022/05/25 00:04:45;;;;;;;10.35;9.30;;;10.00;99.90;;;;;;4938941;28;94441;-35
2022/05/25 00:07:12;;;;;;;12.25;9.00;;;10.10;99.90;;;;;;4937144;28;94342;-37
2022/05/25 00:09:38;;;;;;;9.68;8.77;;;10.10;99.90;;;;;;4939025;28;92470;-34
2022/05/25 00:12:05;;;;;;;9.68;8.80;;;10.10;99.90;;;;;;4938429;28;94523;-32
2022/05/25 00:14:32;;;;;;;12.30;9.07;;;10.00;99.90;;;;;;4938637;28;96028;-38
2022/05/25 00:16:58;;;;;;;9.60;8.05;;;10.10;99.90;;;;;;4939406;28;94578;-33
2022/05/25 00:22:08;;;;;;;10.52;9.52;;;10.00;99.90;;;;;;4938616;28;94821;-38
2022/05/25 00:24:34;;;;;;;9.93;9.13;;;10.00;99.90;;;;;;4939098;28;94547;-39
2022/05/25 00:27:00;;;;;;;12.43;11.30;;;10.10;99.90;;;;;;4938870;28;92179;-38
2022/05/25 00:29:25;;;;;;;10.82;9.90;;;10.00;99.90;;;;;;4938678;28;93539;-33
2022/05/25 00:31:51;;;;;;;9.80;8.95;;;10.00;99.90;;;;;;4937288;28;95791;-33
2022/05/25 00:34:17;;;;;;;9.95;9.15;;;10.10;99.90;;;;;;4938559;28;95505;-34
2022/05/25 00:36:43;;;;;;;10.55;9.65;;;10.10;99.90;;;;;;4937787;28;92290;-38
2022/05/25 00:39:08;;;;;;;10.40;9.40;;;10.10;99.90;;;;;;4939046;28;93405;-36
2022/05/25 00:41:35;;;;;;;13.20;11.70;;;10.10;99.90;;;;;;4938044;28;94604;-33
2022/05/25 00:44:01;;;;;;;10.93;9.80;;;10.10;99.90;;;;;;4936855;28;94437;-35
2022/05/25 00:46:28;;;;;;;10.75;9.85;;;10.10;99.90;;;;;;4938542;28;93629;-37
2022/05/25 00:48:58;;;;;;;10.38;9.32;;;10.10;99.90;;;;;;4989836;22;91441;-33
2022/05/25 00:51:35;;;;;;;9.82;8.88;;;10.00;99.90;;;;;;4938941;28;94239;-36
2022/05/25 00:54:08;;;;;;;10.70;9.70;;;10.00;99.90;;;;;;4938125;28;95073;-33
2022/05/25 00:56:35;;;;;;;9.73;8.73;;;10.00;99.90;;;;;;4938591;28;95324;-33
2022/05/25 00:59:11;;;;;;;10.23;9.32;;;10.00;99.90;;;;;;4938569;28;94631;-35
2022/05/25 01:01:37;;;;;;;11.15;10.05;;;10.00;99.90;;;;;;4937478;28;94612;-34
2022/05/25 01:04:03;;;;;;;9.32;8.45;;;10.00;99.90;;;;;;4937672;28;94628;-35
2022/05/25 01:06:52;;;;;;;10.73;8.77;;;10.00;99.90;;;;;;4937828;28;94541;-36
2022/05/25 01:09:36;;;;;;;9.98;8.88;;;9.90;99.90;;;;;;4937530;28;93952;-35
2022/05/25 01:12:30;;;;;;;9.02;8.20;;;9.90;99.90;;;;;;4937398;28;95073;-35
2022/05/25 01:15:04;;;;;;;10.95;9.07;;;9.90;99.90;;;;;;4926362;28;94537;-33
2022/05/25 01:17:53;;;;;;;10.57;9.57;;;9.90;99.90;;;;;;4937986;28;94154;-34
2022/05/25 01:20:23;;;;;;;9.90;8.90;;;9.90;99.90;;;;;;4936992;28;93173;-38
2022/05/25 01:23:19;;;;;;;9.93;9.13;;;9.80;99.90;;;;;;4937299;28;96954;-34
2022/05/25 01:26:22;;;;;;;9.60;8.80;;;9.80;99.90;;;;;;4937226;28;94095;-36
2022/05/25 01:29:06;;;;;;;8.23;7.57;;;9.80;99.90;;;;;;4938413;28;92793;-36
2022/05/25 01:31:54;;;;;;;10.43;9.52;;;9.80;99.90;;;;;;4937608;28;92658;-35
2022/05/25 01:34:42;;;;;;;9.65;8.65;;;9.80;99.90;;;;;;4936702;28;95280;-38
2022/05/25 01:37:39;;;;;;;10.25;9.30;;;9.80;99.90;;;;;;4937148;28;94574;-38
2022/05/25 01:40:22;;;;;;;11.77;9.93;;;9.80;99.90;;;;;;4933474;28;92674;-33
2022/05/25 01:42:55;;;;;;;9.82;8.13;;;9.70;99.90;;;;;;4937698;28;91386;-35
2022/05/25 01:45:24;;;;;;;9.57;8.80;;;9.80;99.90;;;;;;4937393;28;94902;-35
2022/05/25 01:47:51;;;;;;;9.98;9.07;;;9.80;99.90;;;;;;4937322;28;94628;-36
2022/05/25 01:50:24;;;;;;;13.05;9.60;;;9.70;99.90;;;;;;4937040;28;94271;-34
2022/05/25 01:52:55;;;;;;;10.23;8.85;;;9.70;99.90;;;;;;4937759;28;93186;-36
2022/05/25 01:55:33;;;;;;;10.80;9.52;;;9.70;99.90;;;;;;4936922;28;94515;-35
2022/05/25 01:58:01;;;;;;;;;;;9.70;99.90;;;;;;4937869;28;94530;-35
2022/05/25 02:00:29;;;;;;;9.88;8.80;;;9.70;99.90;;;;;;4939428;28;92701;-35
2022/05/25 02:05:48;;;;;;;9.38;8.52;;;9.60;99.90;;;;;;4936844;28;94564;-37
2022/05/25 02:08:23;;;;;;;10.05;9.05;;;9.60;99.90;;;;;;4937530;28;94502;-35
2022/05/25 02:11:03;;;;;;;9.98;9.07;;;9.60;99.90;;;;;;4937034;28;93907;-33
2022/05/25 02:13:43;;;;;;;10.98;9.35;;;9.60;99.90;;;;;;4937125;28;94415;-34
2022/05/25 02:16:32;;;;;;;11.65;8.93;;;9.60;99.90;;;;;;4936499;28;94856;-35
2022/05/25 02:19:03;;;;;;;;;;;9.60;99.90;;;;;;4937384;28;95416;-36
2022/05/25 02:21:56;;;;;;;13.32;9.82;;;9.60;99.90;;;;;;4938832;28;94600;-35
2022/05/25 02:24:37;;;;;;;10.07;9.07;;;9.50;99.90;;;;;;4936933;28;93480;-33
2022/05/25 02:27:13;;;;;;;11.80;10.70;;;9.50;99.90;;;;;;4936496;28;96422;-34
2022/05/25 02:29:43;;;;;;;10.45;9.50;;;9.50;99.90;;;;;;4935904;28;94625;-35
2022/05/25 02:32:16;;;;;;;11.00;10.00;;;9.50;99.90;;;;;;4940362;28;93746;-38
2022/05/25 02:34:47;;;;;;;11.13;10.02;;;9.50;99.90;;;;;;4939549;28;93151;-33
2022/05/25 02:37:13;;;;;;;12.40;11.25;;;9.50;99.90;;;;;;4939460;28;94791;-34
2022/05/25 02:39:39;;;;;;;12.65;11.18;;;9.50;99.90;;;;;;4938792;28;94629;-37
2022/05/25 02:42:14;;;;;;;12.30;11.05;;;9.50;99.90;;;;;;4939648;28;95408;-36
2022/05/25 02:44:41;;;;;;;12.48;10.65;;;9.50;99.90;;;;;;4939760;28;94527;-32
2022/05/25 02:47:06;;;;;;;12.63;11.35;;;9.40;99.90;;;;;;4939148;28;95089;-36
2022/05/25 02:49:32;;;;;;;13.75;10.93;;;9.50;99.90;;;;;;4939010;28;94601;-36
2022/05/25 02:51:58;;;;;;;16.42;12.13;;;9.50;99.90;;;;;;4939107;28;92209;-36
2022/05/25 02:54:23;;;;;;;11.70;10.60;;;9.50;99.90;;;;;;4939450;28;97367;-34
2022/05/25 02:56:49;;;;;;;12.73;11.52;;;9.50;99.90;;;;;;4938822;28;94583;-35
2022/05/25 02:59:15;;;;;;;13.10;11.75;;;9.40;99.90;;;;;;4939433;28;94399;-33
2022/05/25 03:01:40;;;;;;;13.38;12.00;;;9.40;99.90;;;;;;4939604;28;92615;-33
2022/05/25 03:04:06;;;;;;;14.63;11.50;;;9.40;99.90;;;;;;4939156;28;94117;-32
2022/05/25 03:06:32;;;;;;;12.55;11.35;;;9.30;99.90;;;;;;4938488;28;95689;-34
2022/05/25 03:08:57;;;;;;;15.57;11.30;;;9.40;99.90;;;;;;4938686;28;95431;-33
2022/05/25 03:11:24;;;;;;;14.55;13.10;;;9.40;99.90;;;;;;4939601;28;92054;-38
2022/05/25 03:13:49;;;;;;;16.33;12.43;;;9.40;99.90;;;;;;4939234;28;93578;-33
2022/05/25 03:16:18;;;;;;;14.10;12.75;;;9.40;99.90;;;;;;4938478;28;95520;-33
2022/05/25 03:18:45;;;;;;;13.98;12.68;;;9.40;99.90;;;;;;4938666;28;94796;-37
2022/05/25 03:21:11;;;;;;;14.52;13.20;;;9.40;99.90;;;;;;4939244;28;92570;-35
2022/05/25 03:23:37;;;;;;;15.15;13.70;;;9.40;99.90;;;;;;4938686;28;93860;-34
2022/05/25 03:26:03;;;;;;;18.23;14.73;;;9.30;99.90;;;;;;4938607;28;95005;-36
2022/05/25 03:28:29;;;;;;;15.52;13.90;;;9.30;99.90;;;;;;4939455;28;94834;-33
2022/05/25 03:30:55;;;;;;;15.77;14.30;;;9.30;99.90;;;;;;4938654;28;95705;-36
2022/05/25 03:33:20;;;;;;;14.90;13.05;;;9.30;99.90;;;;;;4939368;28;93466;-36
2022/05/25 03:35:46;;;;;;;13.93;12.50;;;9.30;99.90;;;;;;4937726;28;94839;-38
2022/05/25 03:38:12;;;;;;;15.30;13.75;;;9.30;99.90;;;;;;4938686;28;94469;-37
2022/05/25 03:40:38;;;;;;;17.90;15.73;;;9.30;99.90;;;;;;4938540;28;94433;-34
2022/05/25 03:43:16;;;;;;;17.17;13.50;;;9.40;99.90;;;;;;4938887;28;94334;-33
2022/05/25 03:45:42;;;;;;;16.77;14.55;;;9.40;99.90;;;;;;4937963;28;94725;-36
2022/05/25 03:48:08;;;;;;;17.45;15.52;;;9.40;99.90;;;;;;4939329;28;94568;-36
2022/05/25 03:50:34;;;;;;;15.95;14.32;;;9.40;99.90;;;;;;4938766;28;93475;-37
2022/05/25 03:53:00;;;;;;;15.43;13.90;;;9.40;99.90;;;;;;4938829;28;92707;-36
2022/05/25 03:55:26;;;;;;;18.02;16.23;;;9.40;99.90;;;;;;4938130;28;96652;-35
2022/05/25 03:57:51;;;;;;;16.48;14.88;;;9.40;99.90;;;;;;4937959;28;95574;-36
2022/05/25 04:00:17;;;;;;;16.85;15.05;;;9.40;99.90;;;;;;4938833;28;94535;-33
2022/05/25 04:02:46;;;;;;;18.48;16.60;;;9.40;99.90;;;;;;4938197;28;92140;-36
2022/05/25 04:05:12;;;;;;;15.80;14.27;;;9.40;99.90;;;;;;4937761;28;95163;-35
2022/05/25 04:07:41;;;;;;;16.48;14.77;;;9.50;99.90;;;;;;4938585;28;94474;-37
2022/05/25 04:10:11;;;;;;;18.67;15.38;;;9.50;99.90;;;;;;4938795;28;93422;-36
2022/05/25 04:12:37;;;;;;;15.30;13.63;;;9.50;99.90;;;;;;4938621;28;94173;-36
2022/05/25 04:15:03;;;;;;;23.85;17.33;;;9.50;99.90;;;;;;4938333;28;94510;-35
2022/05/25 04:17:28;;;;;;;17.48;14.50;;;9.60;99.90;;;;;;4938260;28;95434;-34
2022/05/25 04:19:55;;;;;;;17.80;15.80;;;9.70;99.90;;;;;;4938531;28;94190;-34
2022/05/25 04:22:20;;;;;;;18.25;15.00;;;9.70;99.90;;;;;;4937476;28;93664;-33
2022/05/25 04:24:46;;;;;;;17.25;15.43;;;9.90;99.90;;;;;;4937993;28;94694;-37
2022/05/25 04:27:12;;;;;;;18.98;16.98;;;10.00;99.90;;;;;;4936285;28;94529;-36
2022/05/25 04:29:38;;;;;;;21.23;16.80;;;10.20;99.90;;;;;;4937918;28;92143;-34
2022/05/25 04:32:04;;;;;;;19.40;15.82;;;10.30;99.90;;;;;;4938719;28;94803;-33
2022/05/25 04:34:29;;;;;;;17.50;15.80;;;10.50;99.90;;;;;;4937274;28;95096;-33
2022/05/25 04:37:48;;;;;;;21.58;18.30;;;10.70;99.90;;;;;;4935263;28;93207;-34
2022/05/25 04:39:41;;;;;;;18.17;16.15;;;10.80;99.90;;;;;;4937435;28;94517;-32
2022/05/25 04:42:06;;;;;;;19.55;16.95;;;11.10;99.90;;;;;;4937935;28;93679;-39
2022/05/25 04:44:32;;;;;;;17.95;16.02;;;11.30;99.90;;;;;;4937692;28;94401;-33
2022/05/25 04:46:57;;;;;;;16.85;15.15;;;11.40;99.90;;;;;;4936421;28;96702;-34
2022/05/25 04:49:25;;;;;;;18.17;16.23;;;11.60;99.90;;;;;;4936977;28;92225;-34
2022/05/25 04:51:51;;;;;;;22.05;16.23;;;11.70;99.90;;;;;;4937680;28;93339;-37
2022/05/25 04:54:16;;;;;;;17.60;15.77;;;11.80;99.90;;;;;;4936356;28;94753;-35
2022/05/25 04:59:26;;;;;;;17.30;15.52;;;12.10;99.90;;;;;;4937391;28;92889;-37
2022/05/25 05:01:52;;;;;;;18.90;15.38;;;12.20;99.90;;;;;;4937596;28;91876;-35
2022/05/25 05:04:17;;;;;;;16.35;14.75;;;12.10;99.90;;;;;;4937129;28;102828;-34
2022/05/25 05:06:44;;;;;;;16.25;14.57;;;12.40;99.90;;;;;;4936596;28;101934;-35
2022/05/25 05:09:10;;;;;;;16.75;15.23;;;12.30;99.90;;;;;;4937235;28;93872;-37
2022/05/25 05:11:37;;;;;;;16.08;14.25;;;12.40;99.90;;;;;;4936276;28;94709;-35
2022/05/25 05:14:03;;;;;;;14.88;13.43;;;12.70;99.90;;;;;;4937046;28;94845;-38
2022/05/25 05:16:29;;;;;;;16.75;14.45;;;12.70;99.90;;;;;;4937459;28;94716;-35
2022/05/25 05:18:55;;;;;;;13.98;12.55;;;12.70;99.90;;;;;;4936836;28;92740;-36
2022/05/25 05:21:20;;;;;;;15.70;14.02;;;12.80;99.90;;;;;;4936453;28;97871;-38
2022/05/25 05:23:46;;;;;;;14.95;13.27;;;12.80;99.90;;;;;;4936319;28;94847;-38
2022/05/25 05:26:13;;;;;;;13.57;12.07;;;13.00;99.90;;;;;;4936654;28;94678;-34
2022/05/25 05:28:41;;;;;;;16.42;14.38;;;13.10;99.90;;;;;;4937430;28;93528;-34
2022/05/25 05:31:07;;;;;;;;;;;13.20;99.90;;;;;;4937404;28;94508;-37
2022/05/25 05:33:33;;;;;;;14.18;12.88;;;13.40;99.90;;;;;;4937715;28;95754;-37
2022/05/25 05:36:18;;;;;;;18.20;13.75;;;13.50;99.90;;;;;;4936496;28;95508;-37
2022/05/25 05:38:49;;;;;;;15.43;13.68;;;13.60;99.90;;;;;;4936958;28;94209;-37
2022/05/25 05:41:16;;;;;;;15.50;13.10;;;13.80;99.90;;;;;;4935495;28;93531;-37
2022/05/25 05:43:41;;;;;;;16.27;13.10;;;13.70;99.90;;;;;;4936556;28;94890;-34
2022/05/25 05:46:08;;;;;;;14.55;12.98;;;14.00;99.90;;;;;;4936629;28;94604;-33
2022/05/25 05:48:36;;;;;;;14.80;13.07;;;14.10;99.90;;;;;;4937086;28;94376;-34
2022/05/25 05:51:03;;;;;;;12.15;10.98;;;14.20;99.90;;;;;;4936203;28;91393;-37
2022/05/25 05:53:30;;;;;;;13.30;12.10;;;14.30;99.90;;;;;;4936512;28;94969;-42
2022/05/25 05:55:57;;;;;;;12.95;11.27;;;14.50;99.90;;;;;;4936841;28;94495;-34
2022/05/25 05:58:23;;;;;;;12.55;11.30;;;14.60;99.90;;;;;;4936136;28;95307;-34
2022/05/25 06:00:49;;;;;;;13.00;11.20;;;14.50;99.90;;;;;;4941188;28;93390;-37
2022/05/25 06:03:15;;;;;;;12.38;11.18;;;14.90;99.90;;;;;;4956216;28;94761;-35
2022/05/25 06:05:41;;;;;;;13.27;11.05;;;15.00;99.90;;;;;;4956934;28;94436;-35
2022/05/25 06:08:08;;;;;;;12.30;11.00;;;14.90;99.90;;;;;;4960115;28;94293;-37
2022/05/25 06:10:35;;;;;;;11.45;10.32;;;15.20;99.90;;;;;;4958190;28;93998;-38
2022/05/25 06:13:01;;;;;;;11.98;10.95;;;15.30;99.90;;;;;;4959056;28;94758;-37
2022/05/25 06:20:55;;;;;;;12.35;11.05;;;15.60;99.90;;;;;;4958992;28;92139;-33
2022/05/25 06:23:21;;;;;;;12.65;11.32;;;15.40;99.90;;;;;;4958886;28;95012;-37
2022/05/25 06:25:46;;;;;;;14.20;11.20;;;15.70;99.90;;;;;;4958652;28;95893;-38
2022/05/25 06:28:12;;;;;;;13.43;12.02;;;15.60;99.90;;;;;;4959943;28;92522;-36
2022/05/25 06:30:37;;;;;;;13.05;11.65;;;15.50;99.90;;;;;;4958948;28;93725;-37
2022/05/25 06:33:06;;;;;;;14.68;11.30;;;15.70;99.90;;;;;;4958741;28;99105;-38
2022/05/25 06:35:34;;;;;;;14.75;11.73;;;15.90;99.90;;;;;;4959855;28;93163;-36
2022/05/25 06:37:59;;;;;;;13.27;11.35;;;16.30;99.90;;;;;;4959840;28;94762;-35
2022/05/25 06:40:25;;;;;;;18.48;11.68;;;16.50;99.90;;;;;;4958955;28;92962;-34
2022/05/25 06:42:51;;;;;;;16.60;11.60;;;16.70;99.90;;;;;;4960042;28;94789;-37
2022/05/25 06:45:18;;;;;;;16.10;10.93;;;16.20;99.90;;;;;;4939669;28;94768;-35
2022/05/25 06:47:43;;;;;;;16.38;10.73;;;16.40;99.90;;;;;;4939341;28;93567;-36
2022/05/25 06:50:10;;;;;;;15.02;12.32;;;16.80;99.90;;;;;;4939707;28;93263;-39
2022/05/25 06:52:35;;;;;;;12.30;10.43;;;17.00;99.90;;;;;;4937309;28;94957;-35
2022/05/25 06:55:01;;;;;;;17.30;11.23;;;17.00;99.90;;;;;;4961609;28;94428;-39
2022/05/25 06:57:27;;;;;;;14.07;12.23;;;17.20;99.90;;;;;;4967509;28;93644;-35
2022/05/25 06:59:53;;;;;;;13.20;11.75;;;17.20;99.90;;;;;;4968109;28;93432;-34
2022/05/25 07:02:19;;;;;;;13.40;10.70;;;17.40;99.90;;;;;;4959172;28;93903;-38
2022/05/25 07:04:44;;;;;;;15.73;12.38;;;17.40;99.90;;;;;;4956573;28;94134;-35
2022/05/25 07:07:10;;;;;;;14.63;12.07;;;17.50;99.90;;;;;;4957266;28;93914;-35
2022/05/25 07:09:39;;;;;;;13.93;11.13;;;17.20;99.90;;;;;;4956894;28;94628;-35
2022/05/25 07:12:08;;;;;;;12.85;10.45;;;17.40;99.90;;;;;;4955209;28;95885;-39
2022/05/25 07:14:35;;;;;;;13.65;10.77;;;17.10;99.90;;;;;;4955853;28;95445;-35
2022/05/25 07:17:01;;;;;;;13.57;11.23;;;16.90;99.90;;;;;;4956066;28;94910;-38
2022/05/25 07:19:27;;;;;;;12.10;10.77;;;17.40;99.90;;;;;;4956833;28;92817;-39
2022/05/25 07:21:53;;;;;;;13.25;11.02;;;17.80;99.90;;;;;;4955440;28;95688;-36
2022/05/25 07:24:18;;;;;;;12.80;10.15;;;17.80;99.90;;;;;;4956518;28;94481;-39
2022/05/25 07:26:44;;;;;;;15.48;10.82;;;17.80;99.90;;;;;;4956097;28;93165;-35
2022/05/25 07:29:10;;;;;;;13.32;11.85;;;18.00;99.90;;;;;;4956816;28;94235;-35
2022/05/25 07:31:43;;;;;;;10.63;9.52;;;18.20;99.90;;;;;;4956292;28;94498;-36
2022/05/25 07:34:14;;;;;;;12.13;9.50;;;18.20;99.90;;;;;;4956493;28;95066;-35
2022/05/25 07:36:43;;;;;;;14.30;9.15;;;18.00;99.90;;;;;;4955938;28;94456;-34
2022/05/25 07:39:13;;;;;;;9.20;8.40;;;17.70;99.90;;;;;;4956693;28;93316;-37
2022/05/25 07:41:49;;;;;;;10.95;8.70;;;18.10;99.90;;;;;;4955536;28;94657;-38
2022/05/25 07:44:20;;;;;;;7.88;7.05;;;18.20;99.90;;;;;;4957222;28;95354;-38
2022/05/25 07:46:46;;;;;;;6.38;5.80;;;18.30;99.90;;;;;;4956329;28;92333;-37
2022/05/25 07:49:12;;;;;;;8.73;6.15;;;18.40;99.90;;;;;;4957070;28;94799;-37
2022/05/25 07:51:38;;;;;;;9.95;7.30;;;18.20;99.90;;;;;;4955703;28;94821;-34
2022/05/25 07:54:03;;;;;;;6.82;6.18;;;18.10;99.90;;;;;;4957137;28;95119;-34
2022/05/25 07:56:32;;;;;;;7.18;6.47;;;18.00;99.90;;;;;;4956403;28;93174;-35
2022/05/25 07:59:00;;;;;;;9.80;7.47;;;18.20;99.90;;;;;;4956382;28;93088;-36
2022/05/25 08:07:02;;;;;;;7.28;6.50;;;18.70;99.90;;;;;;4956652;28;94398;-39
2022/05/25 08:09:29;;;;;;;7.05;6.35;;;18.20;99.90;;;;;;4956869;28;93438;-34
2022/05/25 08:11:55;;;;;;;13.47;12.33;;;18.30;99.90;;;;;;4955495;28;94433;-37
2022/05/25 08:14:25;;;;;;;6.93;6.30;;;17.90;99.90;;;;;;4955520;28;94395;-36
2022/05/25 08:16:52;;;;;;;6.63;6.03;;;18.30;99.90;;;;;;4956029;28;93854;-37
2022/05/25 08:19:17;;;;;;;8.98;6.20;;;18.20;99.90;;;;;;4956873;28;92579;-36
2022/05/25 08:21:43;;;;;;;10.30;6.43;;;18.10;99.90;;;;;;4956265;28;94503;-37
2022/05/25 08:24:08;;;;;;;6.38;5.78;;;18.40;99.90;;;;;;4956337;28;94649;-39
2022/05/25 08:26:34;;;;;;;6.38;5.80;;;18.30;99.90;;;;;;4955734;28;95486;-36
2022/05/25 08:29:00;;;;;;;6.47;4.72;;;18.40;99.90;;;;;;4955123;28;92623;-35
2022/05/25 08:31:26;;;;;;;6.57;5.68;;;18.60;99.90;;;;;;4955962;28;94875;-36
2022/05/25 08:33:51;;;;;;;12.23;6.43;;;18.90;99.90;;;;;;4955651;28;94901;-37
2022/05/25 08:36:17;;;;;;;5.05;4.55;;;18.60;99.90;;;;;;4956426;28;92614;-36
2022/05/25 08:38:42;;;;;;;6.88;5.30;;;19.00;99.90;;;;;;4955068;28;93447;-38
2022/05/25 08:41:08;;;;;;;10.43;5.63;;;19.00;99.90;;;;;;4956381;28;99013;-37
2022/05/25 08:43:44;;;;;;;5.30;4.88;;;18.90;99.90;;;;;;4955844;28;94378;-35
2022/05/25 08:46:14;;;;;;;13.43;5.95;;;18.80;99.90;;;;;;4956233;28;94163;-37
2022/05/25 08:48:41;;;;;;;5.90;5.22;;;18.60;99.90;;;;;;4955044;28;93398;-35
2022/05/25 08:51:12;;;;;;;6.32;4.93;;;18.50;99.90;;;;;;4954952;28;95673;-35
2022/05/25 08:53:38;;;;;;;9.10;5.97;;;18.70;99.90;;;;;;4955479;28;96658;-35
2022/05/25 08:56:26;;;;;;;6.18;4.43;;;18.90;99.90;;;;;;4956301;28;95032;-35
2022/05/25 08:59:10;;;;;;;;;;;18.90;99.90;;;;;;4955953;28;92993;-34
2022/05/25 09:01:58;;;;;;;8.38;4.38;;;19.10;99.90;;;;;;4956038;28;95083;-37
2022/05/25 09:04:40;;;;;;;6.68;5.18;;;18.80;99.90;;;;;;4954088;28;94674;-35
2022/05/25 09:07:15;;;;;;;4.88;4.43;;;18.80;99.90;;;;;;4954961;28;93680;-35
2022/05/25 09:09:52;;;;;;;7.32;5.57;;;18.50;99.90;;;;;;4955807;28;93363;-34
2022/05/25 09:12:20;;;;;;;6.65;4.63;;;19.00;99.90;;;;;;4955626;28;95657;-34
2022/05/25 09:15:02;;;;;;;5.00;4.53;;;19.00;99.90;;;;;;4955330;28;94522;-36
2022/05/25 09:18:03;;;;;;;317.27;47.63;;;19.30;99.90;;;;;;4955405;28;95350;-38
2022/05/25 09:20:34;;;;;;;5.35;4.75;;;19.10;99.90;;;;;;4955671;28;93363;-37
2022/05/25 09:22:59;;;;;;;5.15;4.72;;;18.90;99.90;;;;;;4955834;28;94657;-34
2022/05/25 09:25:26;;;;;;;8.57;5.22;;;19.00;99.90;;;;;;4954878;28;94404;-37
2022/05/25 09:28:16;;;;;;;5.88;5.38;;;19.10;99.90;;;;;;4955116;28;93381;-35
2022/05/25 09:30:45;;;;;;;6.65;5.70;;;19.20;99.90;;;;;;4955065;28;92107;-35
2022/05/25 09:33:23;;;;;;;6.97;6.28;;;19.10;99.90;;;;;;4955703;28;94809;-39
2022/05/25 09:35:57;;;;;;;7.65;5.97;;;18.80;99.90;;;;;;4955406;28;94726;-35
2022/05/25 09:38:35;;;;;;;6.53;5.93;;;18.60;99.90;;;;;;4954734;28;93468;-35
2022/05/25 09:41:06;;;;;;;8.10;5.93;;;18.60;99.90;;;;;;4954921;28;93995;-39
2022/05/25 09:43:32;;;;;;;6.53;4.85;;;18.30;99.90;;;;;;4953991;28;95889;-36
2022/05/25 09:46:05;;;;;;;6.03;5.45;;;18.20;99.90;;;;;;4954669;28;95548;-37
2022/05/25 09:48:36;;;;;;;5.72;5.00;;;18.30;99.90;;;;;;4954340;28;93384;-36
2022/05/25 09:51:02;;;;;;;5.65;5.20;;;18.20;99.90;;;;;;4955469;28;93750;-35
2022/05/25 09:53:37;;;;;;;5.90;5.38;;;18.30;99.90;;;;;;4955257;28;94557;-35
2022/05/25 09:56:39;;;;;;;6.05;5.45;;;18.60;99.90;;;;;;4955215;28;96216;-35
2022/05/25 09:59:10;;;;;;;4.95;4.55;;;18.80;99.90;;;;;;4955180;28;93524;-38
2022/05/25 10:01:43;;;;;;;5.00;4.55;;;18.70;99.90;;;;;;4954976;28;94039;-34
2022/05/25 10:04:14;;;;;;;5.90;5.32;;;18.70;99.90;;;;;;4955003;28;96230;-37
2022/05/25 10:06:52;;;;;;;5.50;4.93;;;18.80;99.90;;;;;;4954675;28;95220;-39
2022/05/25 10:09:22;;;;;;;7.90;7.15;;;19.00;99.90;;;;;;4954898;28;94013;-38
2022/05/25 10:11:51;;;;;;;6.82;6.22;;;19.00;99.90;;;;;;4954541;28;93310;-37
2022/05/25 10:14:29;;;;;;;6.90;6.25;;;19.20;99.90;;;;;;4954808;28;95197;-36
2022/05/25 10:17:12;;;;;;;7.85;7.25;;;18.60;99.90;;;;;;4954132;28;94924;-35
2022/05/25 10:19:52;;;;;;;6.35;5.78;;;18.40;99.90;;;;;;4954946;28;93396;-36
2022/05/25 10:22:44;;;;;;;7.05;6.35;;;18.70;99.90;;;;;;4954518;28;94475;-35
2022/05/25 10:25:43;;;;;;;5.97;5.53;;;18.40;99.90;;;;;;4954025;28;96585;-36
2022/05/25 10:28:31;;;;;;;7.35;6.50;;;18.70;99.90;;;;;;4955104;28;94394;-37
2022/05/25 10:36:56;;;;;;;5.70;5.20;;;18.20;99.90;;;;;;4953826;28;95691;-36
2022/05/25 10:39:28;;;;;;;9.25;5.10;;;18.50;99.90;;;;;;4953237;28;95786;-35
2022/05/25 10:42:23;;;;;;;4.25;3.95;;;18.50;99.90;;;;;;4954657;28;92390;-35
2022/05/25 10:45:06;;;;;;;8.32;4.47;;;18.60;99.90;;;;;;4954370;28;94033;-36
2022/05/25 10:47:35;;;;;;;4.55;4.10;;;18.60;99.90;;;;;;4953816;28;95665;-38
2022/05/25 10:50:03;;;;;;;5.53;4.95;;;18.60;99.90;;;;;;4953512;28;94654;-35
2022/05/25 10:52:37;;;;;;;5.13;4.63;;;18.20;99.90;;;;;;4957354;28;93439;-38
2022/05/25 10:55:05;;;;;;;5.97;4.57;;;18.80;99.90;;;;;;4957827;28;91862;-36
2022/05/25 10:57:46;;;;;;;6.93;4.72;;;18.50;99.90;;;;;;4957345;28;95362;-36
2022/05/25 11:00:18;;;;;;;10.77;4.95;;;18.30;99.90;;;;;;4956962;28;94605;-36
2022/05/25 11:03:09;;;;;;;16.30;4.63;;;18.20;99.90;;;;;;4957044;28;93627;-34
2022/05/25 11:05:56;;;;;;;7.63;4.82;;;18.10;99.90;;;;;;4957261;28;92566;-39
2022/05/25 11:08:48;;;;;;;5.28;4.78;;;18.00;99.90;;;;;;4957654;28;95681;-34
2022/05/25 11:11:35;;;;;;;4.50;4.18;;;18.50;99.90;;;;;;4956998;28;94814;-35
2022/05/25 11:14:33;;;;;;;5.22;4.82;;;18.50;99.90;;;;;;4957728;28;93341;-36
2022/05/25 11:17:10;;;;;;;7.13;5.95;;;18.70;99.90;;;;;;4957631;28;93066;-35
2022/05/25 11:19:54;;;;;;;10.02;7.28;;;18.60;99.90;;;;;;4957273;28;94865;-36
2022/05/25 11:22:35;;;;;;;10.23;5.88;;;18.70;99.90;;;;;;4956978;28;94124;-35
2022/05/25 11:25:17;;;;;;;7.63;5.13;;;18.80;99.90;;;;;;4957545;28;94488;-37
2022/05/25 11:27:51;;;;;;;5.88;5.38;;;19.00;99.90;;;;;;4957407;28;94705;-35
2022/05/25 11:30:36;;;;;;;6.72;6.10;;;18.70;99.90;;;;;;4956644;28;95604;-36
2022/05/25 11:33:07;;;;;;;6.90;5.75;;;18.50;99.90;;;;;;4955823;28;95693;-35
2022/05/25 11:35:56;;;;;;;6.93;6.38;;;18.90;99.90;;;;;;4937336;28;94455;-36
2022/05/25 11:38:55;;;;;;;7.45;6.35;;;19.00;99.90;;;;;;4937010;28;92753;-36
2022/05/25 11:41:43;;;;;;;6.65;5.68;;;19.10;99.90;;;;;;4937063;28;95141;-38
2022/05/25 11:44:27;;;;;;;8.30;5.32;;;19.20;99.90;;;;;;4936791;28;95239;-38
2022/05/25 11:47:06;;;;;;;5.60;4.85;;;19.10;99.90;;;;;;4937456;28;92986;-36
2022/05/25 11:49:46;;;;;;;7.65;6.10;;;19.00;99.90;;;;;;4937301;28;92999;-36
2022/05/25 11:52:29;;;;;;;11.88;6.07;;;19.00;99.40;;;;;;4936825;28;94564;-38
2022/05/25 11:55:16;;;;;;;9.27;7.55;;;18.80;99.90;;;;;;4936084;28;94551;-35
2022/05/25 11:57:46;;;;;;;9.18;7.38;;;18.50;99.90;;;;;;4935962;28;94977;-36
2022/05/25 12:00:33;;;;;;;37.15;10.45;;;18.40;99.90;;;;;;4936715;28;92265;-35
2022/05/25 12:03:30;;;;;;;8.40;7.70;;;18.30;99.90;;;;;;4935184;28;95164;-39
2022/05/25 12:06:10;;;;;;;9.30;7.53;;;18.10;99.90;;;;;;4935833;28;94443;-36
2022/05/25 12:09:00;;;;;;;31.50;8.20;;;18.20;99.90;;;;;;4936081;28;94724;-37
2022/05/25 12:12:03;;;;;;;11.63;6.57;;;18.20;99.90;;;;;;4951023;28;93826;-35
2022/05/25 12:14:54;;;;;;;6.45;5.75;;;18.20;97.60;;;;;;4955424;28;94794;-34
2022/05/25 12:17:50;;;;;;;7.93;6.85;;;18.00;99.90;;;;;;4955540;28;94288;-36
2022/05/25 12:20:29;;;;;;;7.00;6.40;;;17.90;99.90;;;;;;4955924;28;94204;-38
2022/05/25 12:22:59;;;;;;;12.55;6.43;;;17.70;99.90;;;;;;4955679;28;93049;-34
2022/05/25 12:25:26;;;;;;;27.00;7.72;;;17.60;99.90;;;;;;4953032;28;95778;-38
2022/05/25 12:27:53;;;;;;;10.10;6.93;;;17.30;99.90;;;;;;4955116;28;95887;-38
2022/05/25 12:30:28;;;;;;;8.20;7.43;;;16.90;99.90;;;;;;4955752;28;94262;-36
2022/05/25 12:32:54;;;;;;;10.18;8.32;;;16.40;99.90;;;;;;4955576;28;94571;-39
2022/05/25 12:35:22;;;;;;;9.38;8.48;;;16.10;99.90;;;;;;4955325;28;93006;-36
2022/05/25 12:37:53;;;;;;;9.98;9.00;;;16.00;99.90;;;;;;4954537;28;94675;-38
2022/05/25 12:40:30;;;;;;;9.85;8.93;;;16.10;99.90;;;;;;4956110;28;93120;-36
2022/05/25 12:42:56;;;;;;;10.13;9.23;;;16.10;99.90;;;;;;4955092;28;93118;-35
2022/05/25 12:51:36;;;;;;;11.45;10.30;;;16.40;99.90;;;;;;4953513;28;95378;-38
2022/05/25 12:54:23;;;;;;;10.95;9.90;;;16.30;99.90;;;;;;4954566;28;94086;-38
2022/05/25 12:56:51;;;;;;;8.97;8.17;;;16.50;99.90;;;;;;4954585;28;94713;-35
2022/05/25 12:59:39;;;;;;;8.70;7.87;;;16.50;99.90;;;;;;4953207;28;94789;-37
2022/05/25 13:02:10;;;;;;;13.55;9.25;;;16.70;99.90;;;;;;4955205;28;93917;-34
2022/05/25 13:04:57;;;;;;;10.80;7.82;;;17.10;99.90;;;;;;4954394;28;92516;-39
2022/05/25 13:07:38;;;;;;;7.55;6.88;;;17.00;99.90;;;;;;4954679;28;94670;-35
2022/05/25 13:10:11;;;;;;;7.10;6.50;;;17.00;99.90;;;;;;4956009;28;94722;-36
2022/05/25 13:12:40;;;;;;;7.07;6.45;;;16.90;99.90;;;;;;4956170;28;94606;-39
2022/05/25 13:15:15;;;;;;;5.93;5.35;;;16.90;99.90;;;;;;4954486;28;93097;-37
2022/05/25 13:17:50;;;;;;;6.28;4.72;;;16.70;99.90;;;;;;4953699;28;95942;-35
2022/05/25 13:20:48;;;;;;;7.03;4.70;;;16.70;99.90;;;;;;4954774;28;94352;-38
2022/05/25 13:23:52;;;;;;;4.85;4.43;;;16.80;99.90;;;;;;4952699;28;93589;-37
2022/05/25 13:26:24;;;;;;;5.07;4.55;;;17.10;99.90;;;;;;4972622;28;93665;-35
2022/05/25 13:29:02;;;;;;;6.13;4.35;;;17.40;99.90;;;;;;4974789;28;94753;-34
2022/05/25 13:32:09;;;;;;;4.65;4.28;;;17.40;99.90;;;;;;4974926;28;95743;-35
2022/05/25 13:34:35;;;;;;;10.13;4.53;;;17.40;99.90;;;;;;4931877;28;93406;-38
2022/05/25 13:37:06;;;;;;;4.35;3.15;;;17.40;99.90;;;;;;4964553;28;92587;-36
2022/05/25 13:39:32;;;;;;;4.28;2.33;;;17.40;99.90;;;;;;4974577;28;94724;-38